sensor_id;sensor_type;location;lat;lon;timestamp;P1;durP1;ratioP1;P2;durP2;ratioP2
44987;SDS011;35735;52.226;21.254;2023-12-20T00:01:27;14.15;;;10.93;;
44987;SDS011;35735;52.226;21.254;2023-12-20T00:06:27;14.07;;;10.38;;
44987;SDS011;35735;52.226;21.254;2023-12-20T00:11:28;14.02;;;10.40;;
44987;SDS011;35735;52.226;21.254;2023-12-20T00:16:28;11.25;;;9.13;;
44987;SDS011;35735;52.226;21.254;2023-12-20T00:21:29;12.10;;;9.00;;
44987;SDS011;35735;52.226;21.254;2023-12-20T00:26:30;12.13;;;9.57;;
44987;SDS011;35735;52.226;21.254;2023-12-20T00:31:31;13.98;;;9.73;;
44987;SDS011;35735;52.226;21.254;2023-12-20T00:36:31;11.35;;;8.60;;
44987;SDS011;35735;52.226;21.254;2023-12-20T00:41:32;11.75;;;8.68;;
44987;SDS011;35735;52.226;21.254;2023-12-20T00:46:32;10.55;;;8.18;;
44987;SDS011;35735;52.226;21.254;2023-12-20T00:51:33;10.80;;;8.38;;
44987;SDS011;35735;52.226;21.254;2023-12-20T00:56:33;12.05;;;8.48;;
44987;SDS011;35735;52.226;21.254;2023-12-20T01:01:34;12.00;;;8.48;;
44987;SDS011;35735;52.226;21.254;2023-12-20T01:06:34;13.65;;;8.60;;
44987;SDS011;35735;52.226;21.254;2023-12-20T01:11:35;11.63;;;8.05;;
44987;SDS011;35735;52.226;21.254;2023-12-20T01:16:35;10.20;;;7.57;;
44987;SDS011;35735;52.226;21.254;2023-12-20T01:21:36;9.30;;;6.90;;
44987;SDS011;35735;52.226;21.254;2023-12-20T01:26:37;10.90;;;7.32;;
44987;SDS011;35735;52.226;21.254;2023-12-20T01:31:37;10.15;;;8.02;;
44987;SDS011;35735;52.226;21.254;2023-12-20T01:36:38;9.57;;;7.12;;
44987;SDS011;35735;52.226;21.254;2023-12-20T01:41:39;9.23;;;6.87;;
44987;SDS011;35735;52.226;21.254;2023-12-20T01:46:39;8.13;;;6.20;;
44987;SDS011;35735;52.226;21.254;2023-12-20T01:51:40;8.43;;;6.18;;
44987;SDS011;35735;52.226;21.254;2023-12-20T01:56:41;8.65;;;6.12;;
44987;SDS011;35735;52.226;21.254;2023-12-20T02:01:42;7.70;;;5.95;;
44987;SDS011;35735;52.226;21.254;2023-12-20T02:06:43;9.82;;;6.47;;
44987;SDS011;35735;52.226;21.254;2023-12-20T02:11:46;8.10;;;6.35;;
44987;SDS011;35735;52.226;21.254;2023-12-20T02:16:46;8.80;;;5.93;;
44987;SDS011;35735;52.226;21.254;2023-12-20T02:21:48;7.32;;;5.85;;
44987;SDS011;35735;52.226;21.254;2023-12-20T02:26:48;8.23;;;6.37;;
44987;SDS011;35735;52.226;21.254;2023-12-20T02:31:49;7.97;;;5.82;;
44987;SDS011;35735;52.226;21.254;2023-12-20T02:36:49;8.27;;;5.50;;
44987;SDS011;35735;52.226;21.254;2023-12-20T02:41:50;6.53;;;5.25;;
44987;SDS011;35735;52.226;21.254;2023-12-20T02:46:51;6.85;;;5.30;;
44987;SDS011;35735;52.226;21.254;2023-12-20T02:51:51;6.95;;;5.20;;
44987;SDS011;35735;52.226;21.254;2023-12-20T02:56:52;5.18;;;4.60;;
44987;SDS011;35735;52.226;21.254;2023-12-20T03:01:52;5.45;;;4.45;;
44987;SDS011;35735;52.226;21.254;2023-12-20T03:06:53;5.62;;;4.53;;
44987;SDS011;35735;52.226;21.254;2023-12-20T03:11:53;6.40;;;4.32;;
44987;SDS011;35735;52.226;21.254;2023-12-20T03:16:54;5.03;;;4.25;;
44987;SDS011;35735;52.226;21.254;2023-12-20T03:21:55;7.40;;;4.50;;
44987;SDS011;35735;52.226;21.254;2023-12-20T03:26:55;5.40;;;3.90;;
44987;SDS011;35735;52.226;21.254;2023-12-20T03:31:56;6.18;;;3.87;;
44987;SDS011;35735;52.226;21.254;2023-12-20T03:36:56;3.92;;;3.53;;
44987;SDS011;35735;52.226;21.254;2023-12-20T03:41:57;4.35;;;3.80;;
44987;SDS011;35735;52.226;21.254;2023-12-20T03:46:57;3.72;;;3.30;;
44987;SDS011;35735;52.226;21.254;2023-12-20T03:51:58;3.67;;;3.15;;
44987;SDS011;35735;52.226;21.254;2023-12-20T03:56:58;3.90;;;3.10;;
44987;SDS011;35735;52.226;21.254;2023-12-20T04:01:59;3.78;;;3.20;;
44987;SDS011;35735;52.226;21.254;2023-12-20T04:06:59;4.00;;;3.50;;
44987;SDS011;35735;52.226;21.254;2023-12-20T04:12:00;3.67;;;3.12;;
44987;SDS011;35735;52.226;21.254;2023-12-20T04:17:00;4.80;;;3.08;;
44987;SDS011;35735;52.226;21.254;2023-12-20T04:22:01;3.90;;;2.58;;
44987;SDS011;35735;52.226;21.254;2023-12-20T04:27:02;4.72;;;2.70;;
44987;SDS011;35735;52.226;21.254;2023-12-20T04:32:04;3.55;;;2.83;;
44987;SDS011;35735;52.226;21.254;2023-12-20T04:37:05;3.12;;;2.70;;
44987;SDS011;35735;52.226;21.254;2023-12-20T04:42:06;3.58;;;2.90;;
44987;SDS011;35735;52.226;21.254;2023-12-20T04:47:06;3.62;;;3.00;;
44987;SDS011;35735;52.226;21.254;2023-12-20T04:52:07;3.70;;;3.30;;
44987;SDS011;35735;52.226;21.254;2023-12-20T04:57:07;3.25;;;2.95;;
44987;SDS011;35735;52.226;21.254;2023-12-20T05:02:08;4.12;;;3.42;;
44987;SDS011;35735;52.226;21.254;2023-12-20T05:07:08;4.87;;;3.78;;
44987;SDS011;35735;52.226;21.254;2023-12-20T05:12:09;4.62;;;4.10;;
44987;SDS011;35735;52.226;21.254;2023-12-20T05:17:10;4.55;;;4.12;;
44987;SDS011;35735;52.226;21.254;2023-12-20T05:22:10;4.50;;;4.10;;
44987;SDS011;35735;52.226;21.254;2023-12-20T05:27:11;5.28;;;4.78;;
44987;SDS011;35735;52.226;21.254;2023-12-20T05:32:11;5.70;;;5.07;;
44987;SDS011;35735;52.226;21.254;2023-12-20T05:37:12;5.22;;;4.72;;
44987;SDS011;35735;52.226;21.254;2023-12-20T05:42:12;6.87;;;4.72;;
44987;SDS011;35735;52.226;21.254;2023-12-20T05:47:13;6.80;;;4.95;;
44987;SDS011;35735;52.226;21.254;2023-12-20T05:52:13;7.25;;;5.65;;
44987;SDS011;35735;52.226;21.254;2023-12-20T05:57:14;5.95;;;5.18;;
44987;SDS011;35735;52.226;21.254;2023-12-20T06:02:15;6.12;;;5.53;;
44987;SDS011;35735;52.226;21.254;2023-12-20T06:07:16;6.87;;;5.47;;
44987;SDS011;35735;52.226;21.254;2023-12-20T06:12:16;6.62;;;6.03;;
44987;SDS011;35735;52.226;21.254;2023-12-20T06:17:17;7.47;;;6.60;;
44987;SDS011;35735;52.226;21.254;2023-12-20T06:22:18;7.30;;;6.60;;
44987;SDS011;35735;52.226;21.254;2023-12-20T06:27:18;8.52;;;7.05;;
44987;SDS011;35735;52.226;21.254;2023-12-20T06:32:19;6.85;;;6.10;;
44987;SDS011;35735;52.226;21.254;2023-12-20T06:37:19;7.10;;;6.40;;
44987;SDS011;35735;52.226;21.254;2023-12-20T06:42:20;7.03;;;6.32;;
44987;SDS011;35735;52.226;21.254;2023-12-20T06:47:20;7.43;;;6.65;;
44987;SDS011;35735;52.226;21.254;2023-12-20T06:52:21;7.70;;;7.00;;
44987;SDS011;35735;52.226;21.254;2023-12-20T06:57:21;8.63;;;6.62;;
44987;SDS011;35735;52.226;21.254;2023-12-20T07:02:22;8.02;;;7.10;;
44987;SDS011;35735;52.226;21.254;2023-12-20T07:07:22;8.35;;;7.30;;
44987;SDS011;35735;52.226;21.254;2023-12-20T07:12:23;6.87;;;6.18;;
44987;SDS011;35735;52.226;21.254;2023-12-20T07:17:24;6.70;;;6.07;;
44987;SDS011;35735;52.226;21.254;2023-12-20T07:22:25;6.62;;;5.93;;
44987;SDS011;35735;52.226;21.254;2023-12-20T07:27:25;7.25;;;6.12;;
44987;SDS011;35735;52.226;21.254;2023-12-20T07:32:26;7.45;;;6.62;;
44987;SDS011;35735;52.226;21.254;2023-12-20T07:37:27;8.00;;;6.90;;
44987;SDS011;35735;52.226;21.254;2023-12-20T07:42:27;8.60;;;6.53;;
44987;SDS011;35735;52.226;21.254;2023-12-20T07:47:28;6.90;;;6.18;;
44987;SDS011;35735;52.226;21.254;2023-12-20T07:52:29;9.23;;;6.87;;
44987;SDS011;35735;52.226;21.254;2023-12-20T07:57:30;7.00;;;6.30;;
44987;SDS011;35735;52.226;21.254;2023-12-20T08:02:30;7.20;;;5.80;;
44987;SDS011;35735;52.226;21.254;2023-12-20T08:07:31;7.28;;;6.57;;
44987;SDS011;35735;52.226;21.254;2023-12-20T08:12:31;11.52;;;5.68;;
44987;SDS011;35735;52.226;21.254;2023-12-20T08:17:32;7.93;;;5.85;;
44987;SDS011;35735;52.226;21.254;2023-12-20T08:22:32;7.43;;;6.18;;
44987;SDS011;35735;52.226;21.254;2023-12-20T08:27:33;7.62;;;6.80;;
44987;SDS011;35735;52.226;21.254;2023-12-20T08:32:33;6.93;;;6.18;;
44987;SDS011;35735;52.226;21.254;2023-12-20T08:37:34;8.52;;;6.43;;
44987;SDS011;35735;52.226;21.254;2023-12-20T08:42:35;7.85;;;6.53;;
44987;SDS011;35735;52.226;21.254;2023-12-20T08:47:35;6.95;;;5.85;;
44987;SDS011;35735;52.226;21.254;2023-12-20T08:52:36;7.37;;;5.15;;
44987;SDS011;35735;52.226;21.254;2023-12-20T08:57:36;8.18;;;4.90;;
44987;SDS011;35735;52.226;21.254;2023-12-20T09:02:37;7.95;;;5.32;;
44987;SDS011;35735;52.226;21.254;2023-12-20T09:07:37;7.15;;;5.07;;
44987;SDS011;35735;52.226;21.254;2023-12-20T09:12:38;5.87;;;4.75;;
44987;SDS011;35735;52.226;21.254;2023-12-20T09:17:39;5.32;;;4.82;;
44987;SDS011;35735;52.226;21.254;2023-12-20T09:22:39;5.05;;;4.50;;
44987;SDS011;35735;52.226;21.254;2023-12-20T09:27:40;9.65;;;4.90;;
44987;SDS011;35735;52.226;21.254;2023-12-20T09:32:41;5.55;;;5.00;;
44987;SDS011;35735;52.226;21.254;2023-12-20T09:37:41;10.88;;;6.68;;
44987;SDS011;35735;52.226;21.254;2023-12-20T09:42:48;8.90;;;6.18;;
44987;SDS011;35735;52.226;21.254;2023-12-20T09:47:57;7.10;;;5.47;;
44987;SDS011;35735;52.226;21.254;2023-12-20T09:52:58;6.43;;;5.45;;
44987;SDS011;35735;52.226;21.254;2023-12-20T09:58:01;5.90;;;4.70;;
44987;SDS011;35735;52.226;21.254;2023-12-20T10:03:01;4.65;;;4.25;;
44987;SDS011;35735;52.226;21.254;2023-12-20T10:08:04;5.87;;;4.28;;
44987;SDS011;35735;52.226;21.254;2023-12-20T10:13:06;5.53;;;4.62;;
44987;SDS011;35735;52.226;21.254;2023-12-20T10:18:09;5.25;;;4.53;;
44987;SDS011;35735;52.226;21.254;2023-12-20T10:23:10;5.22;;;4.62;;
44987;SDS011;35735;52.226;21.254;2023-12-20T10:28:11;5.90;;;4.72;;
44987;SDS011;35735;52.226;21.254;2023-12-20T10:33:13;8.73;;;5.07;;
44987;SDS011;35735;52.226;21.254;2023-12-20T10:38:13;7.00;;;4.28;;
44987;SDS011;35735;52.226;21.254;2023-12-20T10:43:15;4.72;;;3.95;;
44987;SDS011;35735;52.226;21.254;2023-12-20T10:48:15;6.93;;;4.70;;
44987;SDS011;35735;52.226;21.254;2023-12-20T10:53:16;7.30;;;5.43;;
44987;SDS011;35735;52.226;21.254;2023-12-20T10:58:17;8.25;;;5.00;;
44987;SDS011;35735;52.226;21.254;2023-12-20T11:03:20;5.95;;;4.82;;
44987;SDS011;35735;52.226;21.254;2023-12-20T11:13:43;6.60;;;4.80;;
44987;SDS011;35735;52.226;21.254;2023-12-20T11:18:55;6.15;;;4.75;;
44987;SDS011;35735;52.226;21.254;2023-12-20T11:23:55;8.27;;;5.10;;
44987;SDS011;35735;52.226;21.254;2023-12-20T11:34:37;4.72;;;4.25;;
44987;SDS011;35735;52.226;21.254;2023-12-20T11:39:38;7.97;;;5.00;;
44987;SDS011;35735;52.226;21.254;2023-12-20T11:44:38;5.03;;;4.47;;
44987;SDS011;35735;52.226;21.254;2023-12-20T11:49:39;6.22;;;5.07;;
44987;SDS011;35735;52.226;21.254;2023-12-20T11:54:40;5.40;;;4.70;;
44987;SDS011;35735;52.226;21.254;2023-12-20T11:59:40;7.22;;;4.90;;
44987;SDS011;35735;52.226;21.254;2023-12-20T12:04:42;6.65;;;5.00;;
44987;SDS011;35735;52.226;21.254;2023-12-20T12:09:43;7.20;;;5.00;;
44987;SDS011;35735;52.226;21.254;2023-12-20T12:14:44;4.85;;;4.35;;
44987;SDS011;35735;52.226;21.254;2023-12-20T12:19:45;5.97;;;4.40;;
44987;SDS011;35735;52.226;21.254;2023-12-20T12:24:46;5.65;;;4.50;;
44987;SDS011;35735;52.226;21.254;2023-12-20T12:30:03;6.68;;;4.93;;
44987;SDS011;35735;52.226;21.254;2023-12-20T12:35:05;5.43;;;4.60;;
44987;SDS011;35735;52.226;21.254;2023-12-20T12:40:07;6.65;;;5.12;;
44987;SDS011;35735;52.226;21.254;2023-12-20T12:45:11;6.35;;;5.57;;
44987;SDS011;35735;52.226;21.254;2023-12-20T12:50:12;4.82;;;4.32;;
44987;SDS011;35735;52.226;21.254;2023-12-20T12:55:13;8.18;;;5.05;;
44987;SDS011;35735;52.226;21.254;2023-12-20T13:00:14;5.57;;;4.57;;
44987;SDS011;35735;52.226;21.254;2023-12-20T13:05:15;6.22;;;4.72;;
44987;SDS011;35735;52.226;21.254;2023-12-20T13:10:15;6.10;;;4.90;;
44987;SDS011;35735;52.226;21.254;2023-12-20T13:15:16;6.43;;;4.72;;
44987;SDS011;35735;52.226;21.254;2023-12-20T13:20:16;8.77;;;5.35;;
44987;SDS011;35735;52.226;21.254;2023-12-20T13:25:17;6.45;;;5.35;;
44987;SDS011;35735;52.226;21.254;2023-12-20T13:30:17;8.00;;;5.80;;
44987;SDS011;35735;52.226;21.254;2023-12-20T13:35:18;9.23;;;6.45;;
44987;SDS011;35735;52.226;21.254;2023-12-20T13:40:19;9.18;;;6.18;;
44987;SDS011;35735;52.226;21.254;2023-12-20T13:45:19;6.75;;;6.07;;
44987;SDS011;35735;52.226;21.254;2023-12-20T13:50:20;9.02;;;6.57;;
44987;SDS011;35735;52.226;21.254;2023-12-20T13:55:20;10.60;;;7.95;;
44987;SDS011;35735;52.226;21.254;2023-12-20T14:00:21;8.70;;;6.35;;
44987;SDS011;35735;52.226;21.254;2023-12-20T14:05:22;8.25;;;6.15;;
44987;SDS011;35735;52.226;21.254;2023-12-20T14:10:23;10.38;;;6.65;;
44987;SDS011;35735;52.226;21.254;2023-12-20T14:15:24;8.95;;;6.10;;
44987;SDS011;35735;52.226;21.254;2023-12-20T14:20:24;9.80;;;6.60;;
44987;SDS011;35735;52.226;21.254;2023-12-20T14:25:25;7.55;;;5.85;;
44987;SDS011;35735;52.226;21.254;2023-12-20T14:30:25;7.37;;;6.20;;
44987;SDS011;35735;52.226;21.254;2023-12-20T14:35:26;7.37;;;6.03;;
44987;SDS011;35735;52.226;21.254;2023-12-20T14:40:26;8.25;;;6.10;;
44987;SDS011;35735;52.226;21.254;2023-12-20T14:45:27;8.07;;;5.65;;
44987;SDS011;35735;52.226;21.254;2023-12-20T14:50:27;10.07;;;6.60;;
44987;SDS011;35735;52.226;21.254;2023-12-20T14:55:28;8.40;;;5.85;;
44987;SDS011;35735;52.226;21.254;2023-12-20T15:00:29;9.35;;;5.65;;
44987;SDS011;35735;52.226;21.254;2023-12-20T15:05:29;9.88;;;5.87;;
44987;SDS011;35735;52.226;21.254;2023-12-20T15:10:30;8.63;;;5.68;;
44987;SDS011;35735;52.226;21.254;2023-12-20T15:15:30;8.88;;;5.55;;
44987;SDS011;35735;52.226;21.254;2023-12-20T15:20:31;8.02;;;5.50;;
44987;SDS011;35735;52.226;21.254;2023-12-20T15:25:32;8.50;;;4.60;;
44987;SDS011;35735;52.226;21.254;2023-12-20T15:30:32;8.25;;;5.00;;
44987;SDS011;35735;52.226;21.254;2023-12-20T15:35:33;9.90;;;4.72;;
44987;SDS011;35735;52.226;21.254;2023-12-20T15:40:34;7.03;;;4.65;;
44987;SDS011;35735;52.226;21.254;2023-12-20T15:45:35;7.62;;;4.53;;
44987;SDS011;35735;52.226;21.254;2023-12-20T15:50:35;8.63;;;4.68;;
44987;SDS011;35735;52.226;21.254;2023-12-20T15:55:36;7.60;;;4.47;;
44987;SDS011;35735;52.226;21.254;2023-12-20T16:00:37;7.62;;;4.30;;
44987;SDS011;35735;52.226;21.254;2023-12-20T16:05:37;9.40;;;4.28;;
44987;SDS011;35735;52.226;21.254;2023-12-20T16:10:38;7.78;;;3.92;;
44987;SDS011;35735;52.226;21.254;2023-12-20T16:15:38;5.18;;;3.75;;
44987;SDS011;35735;52.226;21.254;2023-12-20T16:20:39;7.45;;;4.40;;
44987;SDS011;35735;52.226;21.254;2023-12-20T16:25:40;10.73;;;5.00;;
44987;SDS011;35735;52.226;21.254;2023-12-20T16:30:40;9.85;;;5.30;;
44987;SDS011;35735;52.226;21.254;2023-12-20T16:35:41;8.27;;;4.50;;
44987;SDS011;35735;52.226;21.254;2023-12-20T16:40:41;10.05;;;4.97;;
44987;SDS011;35735;52.226;21.254;2023-12-20T16:45:42;8.93;;;4.80;;
44987;SDS011;35735;52.226;21.254;2023-12-20T16:50:43;7.93;;;4.28;;
44987;SDS011;35735;52.226;21.254;2023-12-20T16:55:43;7.30;;;4.53;;
44987;SDS011;35735;52.226;21.254;2023-12-20T17:00:44;10.23;;;4.22;;
44987;SDS011;35735;52.226;21.254;2023-12-20T17:05:44;7.40;;;4.55;;
44987;SDS011;35735;52.226;21.254;2023-12-20T17:10:45;12.10;;;5.35;;
44987;SDS011;35735;52.226;21.254;2023-12-20T17:15:46;8.38;;;5.10;;
44987;SDS011;35735;52.226;21.254;2023-12-20T17:20:46;10.43;;;5.93;;
44987;SDS011;35735;52.226;21.254;2023-12-20T17:25:47;8.30;;;5.50;;
44987;SDS011;35735;52.226;21.254;2023-12-20T17:30:47;9.25;;;4.97;;
44987;SDS011;35735;52.226;21.254;2023-12-20T17:35:48;8.90;;;5.28;;
44987;SDS011;35735;52.226;21.254;2023-12-20T17:40:48;10.43;;;5.68;;
44987;SDS011;35735;52.226;21.254;2023-12-20T17:45:49;10.88;;;5.40;;
44987;SDS011;35735;52.226;21.254;2023-12-20T17:50:49;9.02;;;4.60;;
44987;SDS011;35735;52.226;21.254;2023-12-20T17:55:50;8.98;;;4.80;;
44987;SDS011;35735;52.226;21.254;2023-12-20T18:00:50;10.55;;;4.75;;
44987;SDS011;35735;52.226;21.254;2023-12-20T18:05:51;6.75;;;4.32;;
44987;SDS011;35735;52.226;21.254;2023-12-20T18:10:51;9.88;;;5.28;;
44987;SDS011;35735;52.226;21.254;2023-12-20T18:15:52;6.15;;;3.62;;
44987;SDS011;35735;52.226;21.254;2023-12-20T18:20:53;9.07;;;3.92;;
44987;SDS011;35735;52.226;21.254;2023-12-20T18:25:53;5.35;;;3.40;;
44987;SDS011;35735;52.226;21.254;2023-12-20T18:30:54;8.73;;;3.78;;
44987;SDS011;35735;52.226;21.254;2023-12-20T18:35:54;6.97;;;3.60;;
44987;SDS011;35735;52.226;21.254;2023-12-20T18:40:56;7.15;;;3.72;;
44987;SDS011;35735;52.226;21.254;2023-12-20T18:45:57;9.52;;;3.78;;
44987;SDS011;35735;52.226;21.254;2023-12-20T18:50:57;8.43;;;4.25;;
44987;SDS011;35735;52.226;21.254;2023-12-20T18:55:58;7.62;;;3.83;;
44987;SDS011;35735;52.226;21.254;2023-12-20T19:00:58;7.32;;;3.80;;
44987;SDS011;35735;52.226;21.254;2023-12-20T19:05:59;6.72;;;3.50;;
44987;SDS011;35735;52.226;21.254;2023-12-20T19:10:59;8.13;;;4.10;;
44987;SDS011;35735;52.226;21.254;2023-12-20T19:16:00;9.32;;;4.30;;
44987;SDS011;35735;52.226;21.254;2023-12-20T19:21:01;8.18;;;3.65;;
44987;SDS011;35735;52.226;21.254;2023-12-20T19:26:02;6.70;;;4.05;;
44987;SDS011;35735;52.226;21.254;2023-12-20T19:31:03;9.73;;;3.90;;
44987;SDS011;35735;52.226;21.254;2023-12-20T19:36:04;6.78;;;3.60;;
44987;SDS011;35735;52.226;21.254;2023-12-20T19:41:07;5.82;;;3.10;;
44987;SDS011;35735;52.226;21.254;2023-12-20T19:46:07;5.12;;;2.92;;
44987;SDS011;35735;52.226;21.254;2023-12-20T19:51:08;3.08;;;1.90;;
44987;SDS011;35735;52.226;21.254;2023-12-20T19:56:09;3.40;;;1.58;;
44987;SDS011;35735;52.226;21.254;2023-12-20T20:01:10;1.60;;;1.10;;
44987;SDS011;35735;52.226;21.254;2023-12-20T20:06:10;2.00;;;1.23;;
44987;SDS011;35735;52.226;21.254;2023-12-20T20:11:11;3.22;;;1.20;;
44987;SDS011;35735;52.226;21.254;2023-12-20T20:16:12;3.10;;;1.33;;
44987;SDS011;35735;52.226;21.254;2023-12-20T20:21:12;1.90;;;1.30;;
44987;SDS011;35735;52.226;21.254;2023-12-20T20:26:13;2.35;;;1.42;;
44987;SDS011;35735;52.226;21.254;2023-12-20T20:31:13;2.12;;;1.20;;
44987;SDS011;35735;52.226;21.254;2023-12-20T20:36:14;2.45;;;1.70;;
44987;SDS011;35735;52.226;21.254;2023-12-20T20:41:14;2.28;;;1.40;;
44987;SDS011;35735;52.226;21.254;2023-12-20T20:46:15;2.17;;;1.27;;
44987;SDS011;35735;52.226;21.254;2023-12-20T20:51:16;2.95;;;1.40;;
44987;SDS011;35735;52.226;21.254;2023-12-20T20:56:16;1.75;;;1.37;;
44987;SDS011;35735;52.226;21.254;2023-12-20T21:01:17;3.12;;;1.90;;
44987;SDS011;35735;52.226;21.254;2023-12-20T21:06:18;2.60;;;1.75;;
44987;SDS011;35735;52.226;21.254;2023-12-20T21:11:18;2.62;;;1.75;;
44987;SDS011;35735;52.226;21.254;2023-12-20T21:16:19;3.30;;;1.90;;
44987;SDS011;35735;52.226;21.254;2023-12-20T21:21:20;4.90;;;2.35;;
44987;SDS011;35735;52.226;21.254;2023-12-20T21:26:20;5.20;;;2.30;;
44987;SDS011;35735;52.226;21.254;2023-12-20T21:31:21;3.67;;;2.22;;
44987;SDS011;35735;52.226;21.254;2023-12-20T21:36:21;4.53;;;2.17;;
44987;SDS011;35735;52.226;21.254;2023-12-20T21:41:22;4.53;;;2.37;;
44987;SDS011;35735;52.226;21.254;2023-12-20T21:46:23;6.87;;;2.30;;
44987;SDS011;35735;52.226;21.254;2023-12-20T21:51:23;3.70;;;2.20;;
44987;SDS011;35735;52.226;21.254;2023-12-20T21:56:24;5.05;;;2.87;;
44987;SDS011;35735;52.226;21.254;2023-12-20T22:01:25;5.97;;;2.30;;
44987;SDS011;35735;52.226;21.254;2023-12-20T22:06:26;4.35;;;2.30;;
44987;SDS011;35735;52.226;21.254;2023-12-20T22:11:27;6.75;;;3.00;;
44987;SDS011;35735;52.226;21.254;2023-12-20T22:16:27;3.78;;;2.40;;
44987;SDS011;35735;52.226;21.254;2023-12-20T22:21:29;4.57;;;2.47;;
44987;SDS011;35735;52.226;21.254;2023-12-20T22:26:29;4.60;;;2.35;;
44987;SDS011;35735;52.226;21.254;2023-12-20T22:31:30;3.62;;;2.45;;
44987;SDS011;35735;52.226;21.254;2023-12-20T22:36:31;4.50;;;2.30;;
44987;SDS011;35735;52.226;21.254;2023-12-20T22:41:31;4.72;;;2.30;;
44987;SDS011;35735;52.226;21.254;2023-12-20T22:46:32;6.10;;;2.35;;
44987;SDS011;35735;52.226;21.254;2023-12-20T22:51:32;4.78;;;2.30;;
44987;SDS011;35735;52.226;21.254;2023-12-20T22:56:33;4.95;;;2.20;;
44987;SDS011;35735;52.226;21.254;2023-12-20T23:01:33;4.85;;;1.98;;
44987;SDS011;35735;52.226;21.254;2023-12-20T23:06:34;6.50;;;2.47;;
44987;SDS011;35735;52.226;21.254;2023-12-20T23:11:35;4.55;;;2.60;;
44987;SDS011;35735;52.226;21.254;2023-12-20T23:16:36;6.47;;;2.40;;
44987;SDS011;35735;52.226;21.254;2023-12-20T23:21:37;4.40;;;2.17;;
44987;SDS011;35735;52.226;21.254;2023-12-20T23:26:38;4.22;;;2.00;;
44987;SDS011;35735;52.226;21.254;2023-12-20T23:31:38;6.43;;;2.42;;
44987;SDS011;35735;52.226;21.254;2023-12-20T23:36:39;5.53;;;2.33;;
44987;SDS011;35735;52.226;21.254;2023-12-20T23:41:39;8.02;;;2.72;;
44987;SDS011;35735;52.226;21.254;2023-12-20T23:46:40;7.15;;;3.00;;
44987;SDS011;35735;52.226;21.254;2023-12-20T23:51:40;6.45;;;2.75;;
44987;SDS011;35735;52.226;21.254;2023-12-20T23:56:41;7.75;;;3.17;;
